Time;durP1;ratioP1;P1;durP2;ratioP2;P2;SDS_P1;SDS_P2;PMS_P1;PMS_P2;Temp;Humidity;BMP_temperature;BMP_pressure;BME280_temperature;BME280_humidity;BME280_pressure;Samples;Min_cycle;Max_cycle;Signal;HPM_P1;HPM_P2
2021/11/13 00:01:25;;;;;;;14.80;9.07;;;;;;;;;;10209008;28;20583;-63
2021/11/13 00:06:23;;;;;;;20.63;10.60;;;;;;;;;;10212052;28;20019;-63
2021/11/13 00:11:20;;;;;;;27.07;10.50;;;;;;;;;;10192782;28;20459;-63
2021/11/13 00:16:18;;;;;;;13.47;6.93;;;;;;;;;;10202871;28;20231;-63
2021/11/13 00:21:15;;;;;;;23.30;10.00;;;;;;;;;;10192923;28;20034;-60
2021/11/13 00:26:13;;;;;;;19.90;9.13;;;;;;;;;;10203295;28;20547;-59
2021/11/13 00:31:10;;;;;;;19.10;9.07;;;;;;;;;;10198127;28;20392;-60
2021/11/13 00:36:09;;;;;;;20.20;7.75;;;;;;;;;;10194144;28;20038;-60
2021/11/13 00:41:06;;;;;;;25.50;10.67;;;;;;;;;;10172295;28;20396;-58
2021/11/13 00:46:05;;;;;;;19.90;8.97;;;;;;;;;;10192459;28;20035;-60
2021/11/13 00:51:02;;;;;;;;;;;;;;;;;;10198677;28;20065;-60
2021/11/13 00:56:00;;;;;;;18.25;9.50;;;;;;;;;;10199065;28;19945;-59
2021/11/13 01:00:57;;;;;;;25.03;12.10;;;;;;;;;;10193453;28;20041;-60
2021/11/13 01:05:55;;;;;;;18.40;7.80;;;;;;;;;;10190079;28;20298;-59
2021/11/13 01:10:53;;;;;;;21.70;8.77;;;;;;;;;;10205772;28;20496;-60
2021/11/13 01:15:51;;;;;;;15.73;8.50;;;;;;;;;;10196490;28;20031;-58
2021/11/13 01:20:49;;;;;;;16.93;8.00;;;;;;;;;;10201663;28;20450;-59
2021/11/13 01:25:46;;;;;;;19.17;8.13;;;;;;;;;;10187032;28;20431;-60
2021/11/13 01:30:44;;;;;;;19.57;9.70;;;;;;;;;;10187612;28;20058;-60
2021/11/13 01:35:41;;;;;;;14.13;8.00;;;;;;;;;;10202642;28;20274;-60
2021/11/13 01:40:39;;;;;;;18.90;8.53;;;;;;;;;;10178617;28;20560;-60
2021/11/13 01:45:38;;;;;;;22.15;9.75;;;;;;;;;;10205296;28;20057;-60
2021/11/13 01:50:38;;;;;;;22.60;9.00;;;;;;;;;;10205221;28;20550;-59
2021/11/13 01:55:37;;;;;;;15.52;8.95;;;;;;;;;;10197658;28;20031;-59
2021/11/13 02:00:38;;;;;;;22.70;9.57;;;;;;;;;;10202696;28;20053;-60
2021/11/13 02:05:36;;;;;;;21.35;9.90;;;;;;;;;;10196180;28;20092;-60
2021/11/13 02:10:33;;;;;;;21.40;8.67;;;;;;;;;;10196177;28;20097;-61
2021/11/13 02:15:31;;;;;;;19.02;10.15;;;;;;;;;;10193817;28;20133;-60
2021/11/13 02:20:42;;;;;;;13.53;7.33;;;;;;;;;;10194102;28;20568;-61
2021/11/13 02:25:39;;;;;;;17.33;9.57;;;;;;;;;;10190609;28;20159;-58
2021/11/13 02:30:37;;;;;;;18.60;9.10;;;;;;;;;;10211444;28;20050;-60
2021/11/13 02:35:35;;;;;;;19.87;9.43;;;;;;;;;;10211717;28;20035;-60
2021/11/13 02:40:33;;;;;;;;;;;;;;;;;;10185231;28;20038;-58
2021/11/13 02:45:31;;;;;;;25.23;9.73;;;;;;;;;;10186158;28;19917;-60
2021/11/13 02:50:29;;;;;;;22.33;9.63;;;;;;;;;;10187536;28;20435;-60
2021/11/13 02:55:27;;;;;;;16.53;8.13;;;;;;;;;;10193885;28;20149;-60
2021/11/13 03:00:26;;;;;;;16.73;8.80;;;;;;;;;;10176930;28;20042;-61
2021/11/13 03:05:27;;;;;;;17.40;9.20;;;;;;;;;;10198529;28;20043;-60
2021/11/13 03:10:26;;;;;;;20.10;9.40;;;;;;;;;;10196367;28;20035;-59
2021/11/13 03:15:24;;;;;;;22.75;8.98;;;;;;;;;;10207163;28;20030;-59
2021/11/13 03:20:26;;;;;;;22.17;9.52;;;;;;;;;;10208481;28;20046;-60
2021/11/13 03:25:24;;;;;;;12.50;6.90;;;;;;;;;;10202425;28;20051;-61
2021/11/13 03:30:22;;;;;;;16.90;8.88;;;;;;;;;;10199662;28;20499;-59
2021/11/13 03:35:27;;;;;;;23.27;10.27;;;;;;;;;;10197027;28;20065;-61
2021/11/13 03:40:25;;;;;;;20.77;9.93;;;;;;;;;;10203818;28;20038;-61
2021/11/13 03:45:22;;;;;;;18.30;8.37;;;;;;;;;;10200350;28;20034;-60
2021/11/13 03:50:20;;;;;;;18.23;7.90;;;;;;;;;;10201718;28;20093;-61
2021/11/13 03:55:17;;;;;;;16.77;9.43;;;;;;;;;;10204907;28;20137;-60
2021/11/13 04:00:15;;;;;;;18.63;9.43;;;;;;;;;;10217269;28;20034;-59
2021/11/13 04:05:14;;;;;;;22.92;10.32;;;;;;;;;;10235978;28;20030;-60
2021/11/13 04:10:11;;;;;;;20.13;9.73;;;;;;;;;;10220673;28;20053;-60
2021/11/13 04:15:12;;;;;;;20.00;8.25;;;;;;;;;;10220809;28;20281;-60
2021/11/13 04:20:10;;;;;;;23.33;9.43;;;;;;;;;;10220637;28;20042;-60
2021/11/13 04:25:08;;;;;;;17.85;8.32;;;;;;;;;;10219045;28;20445;-61
2021/11/13 04:30:07;;;;;;;16.43;8.80;;;;;;;;;;10220184;28;20136;-59
2021/11/13 04:40:13;;;;;;;17.35;8.95;;;;;;;;;;10221040;28;20471;-60
2021/11/13 04:45:11;;;;;;;21.92;11.23;;;;;;;;;;10216634;28;20554;-59
2021/11/13 04:50:10;;;;;;;18.97;9.37;;;;;;;;;;10212515;28;20567;-61
2021/11/13 04:55:08;;;;;;;19.70;8.88;;;;;;;;;;10218628;28;20503;-61
2021/11/13 05:00:07;;;;;;;17.23;9.27;;;;;;;;;;10219208;28;20023;-60
2021/11/13 05:05:05;;;;;;;21.15;8.85;;;;;;;;;;10222605;28;20046;-61
2021/11/13 05:10:03;;;;;;;20.15;9.00;;;;;;;;;;10231328;28;20042;-60
2021/11/13 05:15:03;;;;;;;22.02;9.43;;;;;;;;;;10219101;28;20124;-61
2021/11/13 05:20:01;;;;;;;25.15;11.82;;;;;;;;;;10212440;28;20027;-61
2021/11/13 05:24:59;;;;;;;25.90;11.52;;;;;;;;;;10219603;28;20543;-61
2021/11/13 05:30:00;;;;;;;31.95;10.63;;;;;;;;;;10233102;28;20086;-61
2021/11/13 05:34:57;;;;;;;19.60;8.97;;;;;;;;;;10218117;28;20512;-61
2021/11/13 05:39:54;;;;;;;25.27;9.30;;;;;;;;;;10219649;28;20039;-60
2021/11/13 05:44:52;;;;;;;21.93;11.80;;;;;;;;;;10220349;28;20133;-60
2021/11/13 05:49:50;;;;;;;20.60;9.77;;;;;;;;;;10220121;28;20085;-60
2021/11/13 05:54:47;;;;;;;23.95;9.80;;;;;;;;;;10216483;28;20049;-60
2021/11/13 05:59:45;;;;;;;23.90;11.13;;;;;;;;;;10215838;28;20041;-60
2021/11/13 06:04:42;;;;;;;29.67;11.57;;;;;;;;;;10212842;28;20318;-61
2021/11/13 06:09:40;;;;;;;26.73;10.87;;;;;;;;;;10198153;28;20093;-60
2021/11/13 06:14:37;;;;;;;19.30;10.13;;;;;;;;;;10214275;28;20038;-60
2021/11/13 06:19:35;;;;;;;29.47;11.00;;;;;;;;;;10215793;28;20587;-60
2021/11/13 06:24:32;;;;;;;23.03;9.17;;;;;;;;;;10216456;28;20051;-59
2021/11/13 06:29:32;;;;;;;23.38;10.82;;;;;;;;;;10230391;28;20037;-59
2021/11/13 06:34:30;;;;;;;18.97;8.30;;;;;;;;;;10235842;28;20053;-60
2021/11/13 06:39:27;;;;;;;17.97;9.17;;;;;;;;;;10190157;28;20442;-62
2021/11/13 06:44:25;;;;;;;21.40;8.73;;;;;;;;;;10196548;28;20026;-62
2021/11/13 06:49:23;;;;;;;;;;;;;;;;;;10185022;28;20038;-60
2021/11/13 06:54:23;;;;;;;24.95;9.75;;;;;;;;;;10209988;28;20016;-62
2021/11/13 06:59:21;;;;;;;21.50;8.63;;;;;;;;;;10203375;28;20430;-63
2021/11/13 07:04:18;;;;;;;18.75;7.95;;;;;;;;;;10215075;28;20057;-63
2021/11/13 07:09:16;;;;;;;14.93;7.13;;;;;;;;;;10213308;28;20085;-63
2021/11/13 07:14:13;;;;;;;17.27;8.05;;;;;;;;;;10220887;28;20168;-63
2021/11/13 07:19:11;;;;;;;22.80;10.80;;;;;;;;;;10224084;28;20106;-63
2021/11/13 07:24:09;;;;;;;15.73;6.50;;;;;;;;;;10231558;28;20125;-62
2021/11/13 07:29:09;;;;;;;14.75;6.85;;;;;;;;;;10238862;28;20102;-61
2021/11/13 07:34:06;;;;;;;21.52;10.88;;;;;;;;;;10220697;28;20088;-62
2021/11/13 07:39:04;;;;;;;22.27;10.03;;;;;;;;;;10199655;28;20173;-60
2021/11/13 07:44:02;;;;;;;21.27;10.20;;;;;;;;;;10217948;28;20034;-62
2021/11/13 07:48:59;;;;;;;22.70;9.07;;;;;;;;;;10200922;28;20039;-62
2021/11/13 07:53:56;;;;;;;24.70;9.03;;;;;;;;;;10212602;28;20041;-62
2021/11/13 07:58:54;;;;;;;23.07;8.87;;;;;;;;;;10207192;28;20169;-62
2021/11/13 08:03:51;;;;;;;20.70;11.67;;;;;;;;;;10206625;28;20065;-62
2021/11/13 08:08:49;;;;;;;17.07;8.77;;;;;;;;;;10206763;28;20048;-61
2021/11/13 08:13:47;;;;;;;21.87;9.17;;;;;;;;;;10206374;28;20046;-62
2021/11/13 08:18:44;;;;;;;14.70;7.15;;;;;;;;;;10201937;28;20058;-62
2021/11/13 08:23:41;;;;;;;15.87;7.87;;;;;;;;;;10206010;28;20061;-60
2021/11/13 08:28:39;;;;;;;16.97;8.33;;;;;;;;;;10209180;28;20566;-62
2021/11/13 08:33:36;;;;;;;23.33;10.70;;;;;;;;;;10207800;28;20042;-61
2021/11/13 08:38:34;;;;;;;21.60;7.57;;;;;;;;;;10210659;28;20084;-63
2021/11/13 08:43:31;;;;;;;20.57;9.30;;;;;;;;;;10206797;28;20042;-63
2021/11/13 08:48:29;;;;;;;20.87;8.20;;;;;;;;;;10201353;28;20508;-61
2021/11/13 08:53:26;;;;;;;15.60;8.60;;;;;;;;;;10189289;28;20129;-62
2021/11/13 08:58:24;;;;;;;17.40;7.83;;;;;;;;;;10204064;28;20104;-63
2021/11/13 09:03:23;;;;;;;14.80;6.77;;;;;;;;;;10215608;28;20508;-62
2021/11/13 09:08:21;;;;;;;13.68;7.72;;;;;;;;;;10206125;28;20034;-61
2021/11/13 09:13:19;;;;;;;;;;;;;;;;;;10213644;28;20078;-62
2021/11/13 09:18:16;;;;;;;18.77;9.50;;;;;;;;;;10197858;28;20785;-61
2021/11/13 09:23:14;;;;;;;22.30;10.00;;;;;;;;;;10206123;28;20069;-61
2021/11/13 09:28:12;;;;;;;14.80;7.82;;;;;;;;;;10204347;28;20042;-63
2021/11/13 09:33:10;;;;;;;18.50;8.00;;;;;;;;;;10199638;28;20064;-62
2021/11/13 09:38:09;;;;;;;12.52;6.72;;;;;;;;;;10184946;28;20038;-64
2021/11/13 09:43:07;;;;;;;15.93;7.88;;;;;;;;;;10196715;28;20102;-61
2021/11/13 09:48:05;;;;;;;17.35;7.60;;;;;;;;;;10185544;28;20258;-61
2021/11/13 09:53:05;;;;;;;14.25;6.60;;;;;;;;;;10210997;28;20038;-61
2021/11/13 09:58:03;;;;;;;13.57;7.90;;;;;;;;;;10201546;28;20034;-62
2021/11/13 10:03:00;;;;;;;17.25;8.27;;;;;;;;;;10166548;28;20042;-62
2021/11/13 10:07:57;;;;;;;22.37;8.83;;;;;;;;;;10181038;28;20049;-62
2021/11/13 10:12:55;;;;;;;19.87;9.07;;;;;;;;;;10195186;28;20037;-61
2021/11/13 10:18:06;;;;;;;21.27;9.13;;;;;;;;;;10207703;28;20039;-62
2021/11/13 10:23:03;;;;;;;12.90;7.22;;;;;;;;;;10205651;28;20042;-62
2021/11/13 10:28:06;;;;;;;18.17;8.70;;;;;;;;;;10195582;28;20034;-62
2021/11/13 10:33:03;;;;;;;23.13;10.50;;;;;;;;;;10186945;28;20726;-61
2021/11/13 10:38:11;;;;;;;21.37;10.60;;;;;;;;;;10193956;28;20042;-62
2021/11/13 10:43:09;;;;;;;15.98;8.45;;;;;;;;;;10177879;28;20277;-61
2021/11/13 10:48:22;;;;;;;21.53;8.80;;;;;;;;;;10207226;28;20722;-63
2021/11/13 10:53:25;;;;;;;19.75;9.40;;;;;;;;;;10185777;28;20380;-61
2021/11/13 10:58:27;;;;;;;18.98;8.40;;;;;;;;;;10200161;28;20619;-62
2021/11/13 11:03:35;;;;;;;10.50;7.13;;;;;;;;;;10191550;28;20645;-62
2021/11/13 11:08:34;;;;;;;19.35;8.75;;;;;;;;;;10191291;28;20403;-61
2021/11/13 11:13:51;;;;;;;11.85;4.75;;;;;;;;;;10205620;28;20550;-61
2021/11/13 11:18:56;;;;;;;13.23;6.72;;;;;;;;;;10188211;28;20597;-62
2021/11/13 11:24:10;;;;;;;13.80;6.72;;;;;;;;;;10201407;28;20042;-61
2021/11/13 11:29:08;;;;;;;13.23;7.55;;;;;;;;;;10210055;28;20496;-61
2021/11/13 11:34:05;;;;;;;10.30;6.37;;;;;;;;;;10223333;23;20108;-62
2021/11/13 11:39:03;;;;;;;9.57;5.97;;;;;;;;;;10217839;28;20042;-62
2021/11/13 11:44:00;;;;;;;13.67;5.67;;;;;;;;;;10235827;28;20507;-64
2021/11/13 11:48:59;;;;;;;10.83;5.17;;;;;;;;;;10241810;28;20033;-61
2021/11/13 11:54:00;;;;;;;;;;;;;;;;;;10231546;28;20042;-62
2021/11/13 11:58:59;;;;;;;10.82;5.18;;;;;;;;;;10225114;28;19917;-61
2021/11/13 12:04:10;;;;;;;15.05;6.75;;;;;;;;;;10224812;28;20042;-63
2021/11/13 12:09:08;;;;;;;7.65;4.50;;;;;;;;;;10227800;28;20046;-61
2021/11/13 12:14:39;;;;;;;16.23;7.60;;;;;;;;;;10237283;28;20048;-61
2021/11/13 12:19:36;;;;;;;13.88;6.38;;;;;;;;;;10229543;28;20380;-63
2021/11/13 12:24:36;;;;;;;12.23;5.43;;;;;;;;;;10227566;28;20038;-61
2021/11/13 12:29:46;;;;;;;9.82;6.15;;;;;;;;;;10241651;28;20041;-61
2021/11/13 12:34:52;;;;;;;14.13;6.78;;;;;;;;;;10229340;28;20487;-59
2021/11/13 12:39:50;;;;;;;11.80;7.05;;;;;;;;;;10237461;28;20127;-61
2021/11/13 12:44:48;;;;;;;14.63;6.20;;;;;;;;;;10238692;28;20045;-62
2021/11/13 12:49:45;;;;;;;14.93;6.00;;;;;;;;;;10236213;28;20034;-63
2021/11/13 12:54:45;;;;;;;6.40;4.23;;;;;;;;;;10235284;28;20044;-60
2021/11/13 12:59:58;;;;;;;7.93;4.93;;;;;;;;;;10222862;28;20033;-64
2021/11/13 13:04:55;;;;;;;10.57;4.90;;;;;;;;;;10212012;28;20042;-63
2021/11/13 13:09:58;;;;;;;18.13;7.70;;;;;;;;;;10223144;28;20034;-61
2021/11/13 13:15:05;;;;;;;14.18;5.80;;;;;;;;;;10226986;28;20034;-62
2021/11/13 13:20:07;;;;;;;10.43;5.35;;;;;;;;;;10221637;28;20346;-61
2021/11/13 13:25:07;;;;;;;12.85;6.03;;;;;;;;;;10212406;28;20026;-62
2021/11/13 13:30:04;;;;;;;10.57;6.40;;;;;;;;;;10229759;28;20103;-60
2021/11/13 13:35:12;;;;;;;3.43;3.10;;;;;;;;;;10226517;28;20044;-61
2021/11/13 13:40:16;;;;;;;18.38;8.02;;;;;;;;;;10236249;28;20080;-61
2021/11/13 13:45:14;;;;;;;8.63;5.90;;;;;;;;;;10228150;28;20052;-61
2021/11/13 13:50:12;;;;;;;17.60;8.77;;;;;;;;;;10224919;28;20042;-58
2021/11/13 13:55:20;;;;;;;24.03;11.57;;;;;;;;;;10218494;28;20045;-61
2021/11/13 14:00:19;;;;;;;16.15;7.93;;;;;;;;;;10233297;28;20796;-62
2021/11/13 14:05:16;;;;;;;;;;;;;;;;;;10249170;28;20065;-62
2021/11/13 14:10:14;;;;;;;14.40;7.90;;;;;;;;;;10244305;28;20051;-62
2021/11/13 14:15:14;;;;;;;16.23;8.10;;;;;;;;;;10236194;28;20084;-60
2021/11/13 14:20:13;;;;;;;21.75;7.88;;;;;;;;;;10243817;28;20050;-61
2021/11/13 14:25:10;;;;;;;18.65;7.68;;;;;;;;;;10240844;28;20037;-61
2021/11/13 14:30:08;;;;;;;9.97;6.47;;;;;;;;;;10240936;28;20026;-62
2021/11/13 14:35:07;;;;;;;16.33;7.07;;;;;;;;;;10219430;28;20728;-61
2021/11/13 14:40:06;;;;;;;17.65;7.40;;;;;;;;;;10232939;28;20069;-61
2021/11/13 14:45:05;;;;;;;17.33;9.27;;;;;;;;;;10236931;28;20053;-62
2021/11/13 14:50:06;;;;;;;15.75;5.53;;;;;;;;;;10189728;28;20049;-62
2021/11/13 14:55:09;;;;;;;21.50;9.82;;;;;;;;;;10233159;28;20527;-60
2021/11/13 15:00:15;;;;;;;18.33;6.82;;;;;;;;;;10222079;28;20030;-61
2021/11/13 15:05:23;;;;;;;18.27;8.15;;;;;;;;;;10233635;28;20033;-63
2021/11/13 15:10:21;;;;;;;41.47;20.15;;;;;;;;;;10217734;28;20128;-62
2021/11/13 15:15:18;;;;;;;32.97;17.43;;;;;;;;;;10236754;28;20894;-62
2021/11/13 15:20:23;;;;;;;74.27;25.87;;;;;;;;;;10221774;28;20049;-63
2021/11/13 15:25:22;;;;;;;60.00;23.40;;;;;;;;;;10232175;28;20041;-61
2021/11/13 15:30:20;;;;;;;44.40;19.17;;;;;;;;;;10228729;28;20131;-62
2021/11/13 15:35:18;;;;;;;;;;;;;;;;;;10237504;28;20046;-62
2021/11/13 15:40:21;;;;;;;39.90;16.40;;;;;;;;;;10235097;28;20465;-62
2021/11/13 15:45:21;;;;;;;28.67;13.68;;;;;;;;;;10236342;28;20690;-62
2021/11/13 15:50:18;;;;;;;27.23;10.18;;;;;;;;;;10258007;28;20046;-61
2021/11/13 15:55:18;;;;;;;44.37;16.30;;;;;;;;;;10240564;28;20045;-62
2021/11/13 16:00:21;;;;;;;46.60;16.92;;;;;;;;;;10246199;28;20046;-63
2021/11/13 16:05:21;;;;;;;36.15;17.10;;;;;;;;;;10227363;28;21101;-63
2021/11/13 16:10:19;;;;;;;36.35;15.80;;;;;;;;;;10240907;28;20046;-62
2021/11/13 16:15:17;;;;;;;31.37;13.90;;;;;;;;;;10236496;28;20428;-62
2021/11/13 16:20:16;;;;;;;22.63;12.02;;;;;;;;;;10239041;28;20045;-62
2021/11/13 16:25:15;;;;;;;25.05;10.65;;;;;;;;;;10234865;28;20492;-61
2021/11/13 16:30:14;;;;;;;22.42;10.23;;;;;;;;;;10234919;28;20330;-60
2021/11/13 16:35:12;;;;;;;31.42;11.30;;;;;;;;;;10233389;28;20586;-61
2021/11/13 16:40:10;;;;;;;26.23;11.10;;;;;;;;;;10213628;28;20038;-62
2021/11/13 16:45:07;;;;;;;25.67;11.00;;;;;;;;;;10224199;28;20499;-62
2021/11/13 16:50:05;;;;;;;26.63;10.80;;;;;;;;;;10235543;28;20035;-60
2021/11/13 16:55:02;;;;;;;27.13;11.47;;;;;;;;;;10215949;28;20054;-61
2021/11/13 17:00:00;;;;;;;24.30;10.40;;;;;;;;;;10232966;28;20037;-59
2021/11/13 17:04:58;;;;;;;22.43;9.70;;;;;;;;;;10220788;28;20042;-61
2021/11/13 17:09:55;;;;;;;21.73;10.32;;;;;;;;;;10180542;28;20054;-61
2021/11/13 17:14:53;;;;;;;20.70;8.60;;;;;;;;;;10198149;28;20049;-61
2021/11/13 17:19:51;;;;;;;18.90;8.65;;;;;;;;;;10234136;28;20087;-63
2021/11/13 17:24:48;;;;;;;23.90;10.43;;;;;;;;;;10209764;28;20035;-63
2021/11/13 17:29:46;;;;;;;17.40;8.23;;;;;;;;;;10184842;28;20072;-62
2021/11/13 17:34:43;;;;;;;10.17;6.10;;;;;;;;;;10178742;28;20038;-62
2021/11/13 17:39:41;;;;;;;18.70;10.07;;;;;;;;;;10181326;28;20108;-61
2021/11/13 17:44:38;;;;;;;21.23;6.97;;;;;;;;;;10190259;28;20062;-62
2021/11/13 17:49:36;;;;;;;12.90;6.20;;;;;;;;;;10232677;28;20289;-63
2021/11/13 17:54:33;;;;;;;22.43;9.30;;;;;;;;;;10228921;28;20135;-60
2021/11/13 17:59:31;;;;;;;25.57;10.50;;;;;;;;;;10213905;28;20041;-58
2021/11/13 18:04:28;;;;;;;21.50;9.30;;;;;;;;;;10208966;28;20129;-61
2021/11/13 18:09:26;;;;;;;22.03;9.10;;;;;;;;;;10207818;28;20575;-60
2021/11/13 18:14:23;;;;;;;33.03;12.67;;;;;;;;;;10208655;28;20617;-62
2021/11/13 18:19:22;;;;;;;27.67;10.60;;;;;;;;;;10214740;28;20073;-60
2021/11/13 18:24:20;;;;;;;33.45;17.00;;;;;;;;;;10202778;28;20579;-59
2021/11/13 18:29:17;;;;;;;;;;;;;;;;;;10205541;28;20042;-62
2021/11/13 18:34:22;;;;;;;28.00;10.68;;;;;;;;;;10190177;28;19933;-61
2021/11/13 18:39:20;;;;;;;25.83;11.35;;;;;;;;;;10173879;28;20050;-62
2021/11/13 18:44:18;;;;;;;22.95;8.70;;;;;;;;;;10158096;28;20101;-61
2021/11/13 18:49:15;;;;;;;21.63;8.93;;;;;;;;;;10198538;28;20569;-60
2021/11/13 18:54:13;;;;;;;21.97;9.00;;;;;;;;;;10158832;28;20046;-60
2021/11/13 18:59:10;;;;;;;22.10;9.40;;;;;;;;;;10196285;28;20435;-61
2021/11/13 19:04:13;;;;;;;20.83;9.13;;;;;;;;;;10223479;28;20061;-62
2021/11/13 19:09:10;;;;;;;19.55;8.98;;;;;;;;;;10192573;28;20469;-61
2021/11/13 19:14:08;;;;;;;22.60;8.67;;;;;;;;;;10233999;28;20054;-61
2021/11/13 19:19:05;;;;;;;20.63;8.47;;;;;;;;;;10230689;28;20042;-61
2021/11/13 19:24:02;;;;;;;20.40;8.60;;;;;;;;;;10183993;28;20046;-61
2021/11/13 19:29:00;;;;;;;22.00;9.20;;;;;;;;;;10181727;28;20034;-61
2021/11/13 19:33:57;;;;;;;23.73;7.47;;;;;;;;;;10198089;28;20037;-61
2021/11/13 19:38:55;;;;;;;15.50;8.03;;;;;;;;;;10182328;28;20426;-61
2021/11/13 19:43:52;;;;;;;17.50;6.57;;;;;;;;;;10186104;28;20042;-62
2021/11/13 19:48:50;;;;;;;22.33;8.30;;;;;;;;;;10177131;28;20030;-62
2021/11/13 19:53:48;;;;;;;20.73;8.43;;;;;;;;;;10188653;28;20058;-61
2021/11/13 19:58:45;;;;;;;22.95;8.30;;;;;;;;;;10194403;28;20542;-62
2021/11/13 20:03:45;;;;;;;17.37;7.87;;;;;;;;;;10192474;28;20388;-62
2021/11/13 20:08:42;;;;;;;15.10;6.78;;;;;;;;;;10194523;28;20471;-60
2021/11/13 20:13:40;;;;;;;20.43;8.10;;;;;;;;;;10185683;28;20120;-62
2021/11/13 20:18:37;;;;;;;20.93;8.30;;;;;;;;;;10179871;28;20039;-61
2021/11/13 20:23:35;;;;;;;18.27;7.20;;;;;;;;;;10187776;28;20244;-61
2021/11/13 20:28:35;;;;;;;19.90;7.72;;;;;;;;;;10225976;28;20234;-62
2021/11/13 20:33:32;;;;;;;27.13;8.85;;;;;;;;;;10229568;28;20056;-61
2021/11/13 20:38:32;;;;;;;18.27;6.20;;;;;;;;;;10203738;28;20031;-62
2021/11/13 20:43:30;;;;;;;22.73;7.40;;;;;;;;;;10182177;28;20443;-62
2021/11/13 20:48:28;;;;;;;21.13;8.00;;;;;;;;;;10172726;28;20436;-59
2021/11/13 20:53:25;;;;;;;18.85;7.90;;;;;;;;;;10175872;28;20038;-62
2021/11/13 20:58:23;;;;;;;18.43;7.83;;;;;;;;;;10184274;28;20589;-62
2021/11/13 21:03:21;;;;;;;20.33;7.40;;;;;;;;;;10210960;28;20686;-62
2021/11/13 21:08:19;;;;;;;16.05;8.05;;;;;;;;;;10227259;28;20057;-62
2021/11/13 21:13:16;;;;;;;24.45;8.02;;;;;;;;;;10216103;28;20042;-62
2021/11/13 21:18:15;;;;;;;21.60;7.80;;;;;;;;;;10193827;28;20766;-62
2021/11/13 21:23:12;;;;;;;;;;;;;;;;;;10199258;28;20101;-62
2021/11/13 21:28:10;;;;;;;22.75;9.00;;;;;;;;;;10211941;28;20455;-63
2021/11/13 21:33:08;;;;;;;17.07;7.83;;;;;;;;;;10214694;28;20070;-61
2021/11/13 21:38:07;;;;;;;16.75;6.65;;;;;;;;;;10213193;28;20061;-62
2021/11/13 21:43:04;;;;;;;16.73;7.20;;;;;;;;;;10236089;28;20040;-59
2021/11/13 21:48:02;;;;;;;16.90;6.40;;;;;;;;;;10233337;28;20050;-61
2021/11/13 21:52:59;;;;;;;19.40;6.87;;;;;;;;;;10224273;28;20034;-62
2021/11/13 21:57:57;;;;;;;12.10;6.07;;;;;;;;;;10248894;28;20034;-61
2021/11/13 22:02:57;;;;;;;14.57;6.53;;;;;;;;;;10243453;28;20463;-62
2021/11/13 22:07:55;;;;;;;16.25;6.72;;;;;;;;;;10260822;28;20488;-61
2021/11/13 22:12:52;;;;;;;10.73;5.65;;;;;;;;;;10234494;28;20061;-61
2021/11/13 22:17:50;;;;;;;15.00;6.37;;;;;;;;;;10238146;28;20526;-62
2021/11/13 22:22:48;;;;;;;10.30;4.57;;;;;;;;;;10239669;28;20022;-63
2021/11/13 22:27:46;;;;;;;9.70;4.20;;;;;;;;;;10239499;28;20364;-61
2021/11/13 22:32:44;;;;;;;12.38;6.97;;;;;;;;;;10245173;28;20128;-63
2021/11/13 22:37:42;;;;;;;15.25;5.82;;;;;;;;;;10249070;28;20137;-62
2021/11/13 22:42:40;;;;;;;15.95;5.88;;;;;;;;;;10240583;28;20034;-62
2021/11/13 22:47:37;;;;;;;16.27;6.33;;;;;;;;;;10236825;28;20038;-61
2021/11/13 22:52:35;;;;;;;13.23;5.57;;;;;;;;;;10250605;28;20045;-62
2021/11/13 22:57:32;;;;;;;14.37;6.60;;;;;;;;;;10240167;28;20041;-62
2021/11/13 23:02:31;;;;;;;12.87;5.90;;;;;;;;;;10233290;28;20034;-62
2021/11/13 23:07:28;;;;;;;;;;;;;;;;;;10238183;28;20523;-62
2021/11/13 23:12:25;;;;;;;15.57;6.20;;;;;;;;;;10237824;28;20024;-63
2021/11/13 23:17:23;;;;;;;27.77;11.83;;;;;;;;;;10241483;28;20038;-60
2021/11/13 23:22:20;;;;;;;26.70;10.97;;;;;;;;;;10227882;28;20038;-62
2021/11/13 23:27:18;;;;;;;29.80;12.27;;;;;;;;;;10235890;28;20585;-62
2021/11/13 23:32:16;;;;;;;14.32;6.53;;;;;;;;;;10250707;28;20426;-62
2021/11/13 23:37:14;;;;;;;29.10;11.90;;;;;;;;;;10234670;28;20036;-63
2021/11/13 23:42:11;;;;;;;26.47;9.37;;;;;;;;;;10229428;28;20292;-62
2021/11/13 23:47:08;;;;;;;12.80;5.73;;;;;;;;;;10216943;28;20042;-62
2021/11/13 23:52:06;;;;;;;15.40;7.33;;;;;;;;;;10237202;28;20034;-63
2021/11/13 23:57:04;;;;;;;28.63;12.73;;;;;;;;;;10229823;28;20049;-62
